Time;durP1;ratioP1;P1;durP2;ratioP2;P2;SDS_P1;SDS_P2;PMS_P1;PMS_P2;Temp;Humidity;BMP_temperature;BMP_pressure;BME280_temperature;BME280_humidity;BME280_pressure;Samples;Min_cycle;Max_cycle;Signal;HPM_P1;HPM_P2
2022/08/20 00:00:35;;;;;;;;;;;;;;;;;;5096187;28;19959;-81
2022/08/20 00:03:03;;;;;;;;;;;;;;;;;;5094836;28;19924;-81
2022/08/20 00:05:33;;;;;;;;;;;;;;;;;;5086390;28;20287;-81
2022/08/20 00:08:00;;;;;;;;;;;;;;;;;;5080696;28;19970;-81
2022/08/20 00:10:27;;;;;;;;;;;;;;;;;;5080325;28;20004;-83
2022/08/20 00:12:55;;;;;;;;;;;;;;;;;;5080768;28;20011;-81
2022/08/20 00:15:23;;;;;;;;;;;;;;;;;;5078973;28;19925;-82
2022/08/20 00:17:50;;;;;;;;;;;;;;;;;;5077432;28;19924;-82
2022/08/20 00:20:18;;;;;;;;;;;;;;;;;;5076919;28;19924;-80
2022/08/20 00:22:46;;;;;;;;;;;;;;;;;;5076309;28;19963;-81
2022/08/20 00:25:14;;;;;;;;;;;;;;;;;;5077175;28;20007;-81
2022/08/20 00:27:40;;;;;;;;;;;;;;;;;;5076160;28;19924;-82
2022/08/20 00:30:08;;;;;;;;;;;;;;;;;;5076142;28;19924;-82
2022/08/20 00:32:42;;;;;;;;;;;;;;;;;;5076247;28;20391;-81
2022/08/20 00:35:08;;;;;;;;;;;;;;;;;;5077228;28;20003;-82
2022/08/20 00:37:35;;;;;;;;;;;;;;;;;;5077034;28;19971;-80
2022/08/20 00:40:04;;;;;;;;;;;;;;;;;;5076220;28;19928;-81
2022/08/20 00:42:31;;;;;;;;;;;;;;;;;;5076415;28;19971;-81
2022/08/20 00:44:57;;;;;;;;;;;;;;;;;;5075755;28;20340;-81
2022/08/20 00:47:23;;;;;;;;;;;;;;;;;;5076292;28;19976;-81
2022/08/20 00:49:50;;;;;;;;;;;;;;;;;;5075915;28;19987;-81
2022/08/20 00:52:19;;;;;;;;;;;;;;;;;;5076205;28;20023;-80
2022/08/20 00:54:48;;;;;;;;;;;;;;;;;;5075926;28;19929;-81
2022/08/20 00:57:19;;;;;;;;;;;;;;;;;;5076493;28;19964;-80
2022/08/20 00:59:47;;;;;;;;;;;;;;;;;;5075433;28;19960;-79
2022/08/20 01:02:15;;;;;;;;;;;;;;;;;;5075459;28;20031;-80
2022/08/20 01:04:45;;;;;;;;;;;;;;;;;;5075317;28;20011;-80
2022/08/20 01:07:11;;;;;;;;;;;;;;;;;;5075860;28;19924;-80
2022/08/20 01:09:38;;;;;;;;;;;;;;;;;;5075091;28;19924;-82
2022/08/20 01:12:05;;;;;;;;;;;;;;;;;;5075496;28;19925;-80
2022/08/20 01:14:42;;;;;;;;;;;;;;;;;;5075795;28;20409;-81
2022/08/20 01:17:12;;;;;;;;;;;;;;;;;;5075978;28;19924;-81
2022/08/20 01:19:40;;;;;;;;;;;;;;;;;;5074749;28;20385;-81
2022/08/20 01:23:25;;;;;;;;;;;;;;;;;;5074923;28;19932;-81
2022/08/20 01:24:56;;;;;;;;;;;;;;;;;;5075006;28;20011;-82
2022/08/20 01:27:24;;;;;;;;;;;;;;;;;;5078705;28;19928;-82
2022/08/20 01:29:51;;;;;;;;;;;;;;;;;;5088461;28;20398;-82
2022/08/20 01:32:17;;;;;;;;;;;;;;;;;;5088805;28;19924;-81
2022/08/20 01:34:44;;;;;;;;;;;;;;;;;;5089700;28;19985;-81
2022/08/20 01:37:10;;;;;;;;;;;;;;;;;;5088974;28;19929;-82
2022/08/20 01:39:37;;;;;;;;;;;;;;;;;;5087787;28;19959;-82
2022/08/20 01:42:07;;;;;;;;;;;;;;;;;;5088106;28;19996;-81
2022/08/20 01:44:36;;;;;;;;;;;;;;;;;;5088715;28;19963;-82
2022/08/20 01:47:08;;;;;;;;;;;;;;;;;;5088560;28;19928;-81
2022/08/20 01:49:35;;;;;;;;;;;;;;;;;;5088609;28;19931;-82
2022/08/20 01:52:06;;;;;;;;;;;;;;;;;;5083754;28;19924;-81
2022/08/20 01:54:33;;;;;;;;;;;;;;;;;;5079632;28;19955;-81
2022/08/20 01:57:01;;;;;;;;;;;;;;;;;;5079838;28;19924;-82
2022/08/20 01:59:28;;;;;;;;;;;;;;;;;;5079828;28;19924;-81
2022/08/20 02:01:57;;;;;;;;;;;;;;;;;;5094508;28;19970;-81
2022/08/20 02:04:23;;;;;;;;;;;;;;;;;;5100810;28;19928;-82
2022/08/20 02:06:51;;;;;;;;;;;;;;;;;;5100966;28;19924;-82
2022/08/20 02:09:18;;;;;;;;;;;;;;;;;;5101114;28;20402;-81
2022/08/20 02:11:46;;;;;;;;;;;;;;;;;;5100542;28;19959;-81
2022/08/20 02:14:13;;;;;;;;;;;;;;;;;;5100590;28;19947;-80
2022/08/20 02:16:41;;;;;;;;;;;;;;;;;;5101231;28;19931;-81
2022/08/20 02:19:11;;;;;;;;;;;;;;;;;;5103323;28;19925;-82
2022/08/20 02:21:39;;;;;;;;;;;;;;;;;;5116921;28;19908;-78
2022/08/20 02:24:06;;;;;;;;;;;;;;;;;;5116878;28;19956;-78
2022/08/20 02:26:36;;;;;;;;;;;;;;;;;;5116339;28;19924;-80
2022/08/20 02:29:03;;;;;;;;;;;;;;;;;;5114746;28;19986;-81
2022/08/20 02:31:30;;;;;;;;;;;;;;;;;;5102928;28;19967;-81
2022/08/20 02:33:56;;;;;;;;;;;;;;;;;;5102509;28;19963;-82
2022/08/20 02:36:25;;;;;;;;;;;;;;;;;;5102019;28;19978;-81
2022/08/20 02:38:52;;;;;;;;;;;;;;;;;;5101532;28;19924;-82
2022/08/20 02:41:20;;;;;;;;;;;;;;;;;;5101188;28;19931;-81
2022/08/20 02:43:46;;;;;;;;;;;;;;;;;;5100691;28;19924;-81
2022/08/20 02:46:14;;;;;;;;;;;;;;;;;;5101112;28;20128;-82
2022/08/20 02:48:40;;;;;;;;;;;;;;;;;;5104276;28;19931;-83
2022/08/20 02:51:07;;;;;;;;;;;;;;;;;;5103491;28;19924;-83
2022/08/20 02:53:36;;;;;;;;;;;;;;;;;;5103277;28;19983;-81
2022/08/20 02:56:03;;;;;;;;;;;;;;;;;;5103458;28;20131;-80
2022/08/20 02:58:30;;;;;;;;;;;;;;;;;;5104518;28;20001;-82
2022/08/20 03:00:56;;;;;;;;;;;;;;;;;;5096796;28;19924;-81
2022/08/20 03:03:23;;;;;;;;;;;;;;;;;;5088314;28;19924;-83
2022/08/20 03:05:50;;;;;;;;;;;;;;;;;;5084943;28;20410;-83
2022/08/20 03:08:17;;;;;;;;;;;;;;;;;;5085154;28;19993;-82
2022/08/20 03:10:47;;;;;;;;;;;;;;;;;;5083832;28;19935;-83
2022/08/20 03:13:14;;;;;;;;;;;;;;;;;;5083954;28;19929;-83
2022/08/20 03:15:41;;;;;;;;;;;;;;;;;;5083358;28;19987;-83
2022/08/20 03:18:08;;;;;;;;;;;;;;;;;;5083187;28;20291;-83
2022/08/20 03:20:35;;;;;;;;;;;;;;;;;;5083168;28;20560;-83
2022/08/20 03:23:01;;;;;;;;;;;;;;;;;;5083661;28;19924;-81
2022/08/20 03:25:28;;;;;;;;;;;;;;;;;;5077332;28;19924;-82
2022/08/20 03:27:56;;;;;;;;;;;;;;;;;;5077477;28;19930;-82
2022/08/20 03:30:23;;;;;;;;;;;;;;;;;;5078380;28;19924;-81
2022/08/20 03:32:50;;;;;;;;;;;;;;;;;;5090694;28;19925;-81
2022/08/20 03:35:18;;;;;;;;;;;;;;;;;;5091452;28;19963;-81
2022/08/20 03:37:45;;;;;;;;;;;;;;;;;;5090645;28;19951;-81
2022/08/20 03:40:17;;;;;;;;;;;;;;;;;;5089317;28;19924;-81
2022/08/20 03:42:43;;;;;;;;;;;;;;;;;;5080843;28;19975;-82
2022/08/20 03:45:12;;;;;;;;;;;;;;;;;;5078320;28;20000;-82
2022/08/20 03:47:39;;;;;;;;;;;;;;;;;;5078182;28;19931;-82
2022/08/20 03:50:06;;;;;;;;;;;;;;;;;;5077219;28;19925;-81
2022/08/20 03:52:33;;;;;;;;;;;;;;;;;;5076537;28;20015;-81
2022/08/20 03:54:59;;;;;;;;;;;;;;;;;;5077161;28;20015;-81
2022/08/20 03:57:26;;;;;;;;;;;;;;;;;;5076936;28;19970;-81
2022/08/20 03:59:52;;;;;;;;;;;;;;;;;;5076309;28;19928;-81
2022/08/20 04:02:20;;;;;;;;;;;;;;;;;;5078650;28;19925;-83
2022/08/20 04:04:47;;;;;;;;;;;;;;;;;;5082932;28;19956;-82
2022/08/20 04:07:15;;;;;;;;;;;;;;;;;;5082009;28;20298;-83
2022/08/20 04:09:42;;;;;;;;;;;;;;;;;;5082730;28;19931;-80
2022/08/20 04:12:11;;;;;;;;;;;;;;;;;;5082825;28;19928;-80
2022/08/20 04:14:39;;;;;;;;;;;;;;;;;;5082963;28;20379;-82
2022/08/20 04:17:06;;;;;;;;;;;;;;;;;;5082246;28;20272;-82
2022/08/20 04:19:36;;;;;;;;;;;;;;;;;;5081762;28;19925;-82
2022/08/20 04:22:03;;;;;;;;;;;;;;;;;;5081884;28;19972;-82
2022/08/20 04:24:30;;;;;;;;;;;;;;;;;;5082063;28;19956;-82
2022/08/20 04:26:57;;;;;;;;;;;;;;;;;;5081803;28;20401;-82
2022/08/20 04:29:26;;;;;;;;;;;;;;;;;;5081259;28;19939;-81
2022/08/20 04:31:53;;;;;;;;;;;;;;;;;;5081307;28;20391;-82
2022/08/20 04:34:19;;;;;;;;;;;;;;;;;;5081702;28;19925;-81
2022/08/20 04:36:47;;;;;;;;;;;;;;;;;;5081674;28;19931;-80
2022/08/20 04:39:14;;;;;;;;;;;;;;;;;;5080694;28;19925;-80
2022/08/20 04:41:44;;;;;;;;;;;;;;;;;;5080858;28;19999;-79
2022/08/20 04:44:10;;;;;;;;;;;;;;;;;;5081548;28;19936;-80
2022/08/20 04:46:38;;;;;;;;;;;;;;;;;;5081316;28;19924;-82
2022/08/20 04:49:05;;;;;;;;;;;;;;;;;;5080306;28;19968;-81
2022/08/20 04:51:32;;;;;;;;;;;;;;;;;;5080605;28;20019;-82
2022/08/20 04:54:01;;;;;;;;;;;;;;;;;;5097487;22;19955;-63
2022/08/20 04:56:31;;;;;;;;;;;;;;;;;;5072863;28;19931;-63
2022/08/20 04:58:58;;;;;;;;;;;;;;;;;;5073025;28;19932;-64
2022/08/20 05:01:25;;;;;;;;;;;;;;;;;;5072331;28;19955;-63
2022/08/20 05:03:54;;;;;;;;;;;;;;;;;;5072674;28;20380;-63
2022/08/20 05:06:22;;;;;;;;;;;;;;;;;;5072849;28;19974;-62
2022/08/20 05:08:48;;;;;;;;;;;;;;;;;;5072616;28;19932;-64
2022/08/20 05:11:17;;;;;;;;;;;;;;;;;;5072554;28;19925;-62
2022/08/20 05:13:43;;;;;;;;;;;;;;;;;;5072920;28;19925;-64
2022/08/20 05:16:10;;;;;;;;;;;;;;;;;;5072975;28;20018;-63
2022/08/20 05:18:37;;;;;;;;;;;;;;;;;;5072337;28;20345;-63
2022/08/20 05:21:04;;;;;;;;;;;;;;;;;;5072386;28;20313;-63
2022/08/20 05:23:31;;;;;;;;;;;;;;;;;;5072606;28;20300;-63
2022/08/20 05:25:58;;;;;;;;;;;;;;;;;;5072608;28;19994;-62
2022/08/20 05:28:29;;;;;;;;;;;;;;;;;;5072687;28;19971;-63
2022/08/20 05:30:55;;;;;;;;;;;;;;;;;;5072377;28;20270;-62
2022/08/20 05:33:24;;;;;;;;;;;;;;;;;;5072583;28;19925;-62
2022/08/20 05:35:51;;;;;;;;;;;;;;;;;;5072863;28;19924;-63
2022/08/20 05:38:19;;;;;;;;;;;;;;;;;;5072721;28;20341;-63
2022/08/20 05:40:46;;;;;;;;;;;;;;;;;;5072141;28;19924;-63
2022/08/20 05:43:13;;;;;;;;;;;;;;;;;;5071962;28;19924;-63
2022/08/20 05:45:43;;;;;;;;;;;;;;;;;;5072244;28;19924;-62
2022/08/20 05:48:11;;;;;;;;;;;;;;;;;;5072480;28;20347;-62
2022/08/20 05:50:37;;;;;;;;;;;;;;;;;;5072090;28;19924;-63
2022/08/20 05:53:04;;;;;;;;;;;;;;;;;;5072051;28;20331;-63
2022/08/20 05:55:31;;;;;;;;;;;;;;;;;;5072372;28;19928;-63
2022/08/20 05:57:58;;;;;;;;;;;;;;;;;;5073055;28;19928;-63
2022/08/20 06:00:26;;;;;;;;;;;;;;;;;;5070090;28;19955;-62
2022/08/20 06:05:38;;;;;;;;;;;;;;;;;;5052169;28;20412;-62
2022/08/20 06:08:05;;;;;;;;;;;;;;;;;;5052532;28;20310;-64
2022/08/20 06:10:31;;;;;;;;;;;;;;;;;;5051850;28;20214;-63
2022/08/20 06:12:58;;;;;;;;;;;;;;;;;;5052131;28;19929;-63
2022/08/20 06:15:25;;;;;;;;;;;;;;;;;;5052715;28;20424;-63
2022/08/20 06:17:51;;;;;;;;;;;;;;;;;;5052195;28;20321;-63
2022/08/20 06:20:19;;;;;;;;;;;;;;;;;;5052182;28;20297;-63
2022/08/20 06:22:46;;;;;;;;;;;;;;;;;;5054924;28;19970;-63
2022/08/20 06:25:12;;;;;;;;;;;;;;;;;;5055728;28;20405;-64
2022/08/20 06:27:39;;;;;;;;;;;;;;;;;;5055561;28;19936;-63
2022/08/20 06:30:07;;;;;;;;;;;;;;;;;;5055544;28;19970;-62
2022/08/20 06:32:33;;;;;;;;;;;;;;;;;;5055732;28;19978;-64
2022/08/20 06:35:01;;;;;;;;;;;;;;;;;;5056209;28;19932;-64
2022/08/20 06:37:30;;;;;;;;;;;;;;;;;;5056044;28;20271;-63
2022/08/20 06:40:00;;;;;;;;;;;;;;;;;;5055512;28;19932;-63
2022/08/20 06:42:26;;;;;;;;;;;;;;;;;;5055884;28;19936;-63
2022/08/20 06:44:53;;;;;;;;;;;;;;;;;;5055902;28;19925;-62
2022/08/20 06:47:20;;;;;;;;;;;;;;;;;;5055283;28;19924;-63
2022/08/20 06:49:47;;;;;;;;;;;;;;;;;;5055033;28;19994;-62
2022/08/20 06:52:14;;;;;;;;;;;;;;;;;;5055062;28;20043;-64
2022/08/20 06:54:42;;;;;;;;;;;;;;;;;;5055159;28;19925;-63
2022/08/20 06:57:09;;;;;;;;;;;;;;;;;;5055160;28;19964;-62
2022/08/20 06:59:36;;;;;;;;;;;;;;;;;;5055284;28;19925;-63
2022/08/20 07:02:03;;;;;;;;;;;;;;;;;;5070537;28;20397;-63
2022/08/20 07:04:30;;;;;;;;;;;;;;;;;;5075229;28;19947;-63
2022/08/20 07:06:57;;;;;;;;;;;;;;;;;;5074862;28;19932;-63
2022/08/20 07:09:24;;;;;;;;;;;;;;;;;;5074716;28;20002;-63
2022/08/20 07:11:52;;;;;;;;;;;;;;;;;;5075122;28;19978;-63
2022/08/20 07:14:19;;;;;;;;;;;;;;;;;;5074907;28;20393;-63
2022/08/20 07:16:46;;;;;;;;;;;;;;;;;;5075012;28;19970;-62
2022/08/20 07:19:12;;;;;;;;;;;;;;;;;;5074553;28;20370;-63
2022/08/20 07:21:39;;;;;;;;;;;;;;;;;;5069955;28;19948;-63
2022/08/20 07:24:06;;;;;;;;;;;;;;;;;;5054558;28;19929;-63
2022/08/20 07:26:33;;;;;;;;;;;;;;;;;;5054719;28;19928;-62
2022/08/20 07:29:01;;;;;;;;;;;;;;;;;;5054177;28;19976;-62
2022/08/20 07:34:12;;;;;;;;;;;;;;;;;;5054706;28;19979;-63
2022/08/20 07:36:39;;;;;;;;;;;;;;;;;;5055369;28;19925;-61
2022/08/20 07:39:05;;;;;;;;;;;;;;;;;;5054826;28;19992;-61
2022/08/20 07:41:32;;;;;;;;;;;;;;;;;;5054963;28;19924;-64
2022/08/20 07:43:59;;;;;;;;;;;;;;;;;;5054254;28;19979;-62
2022/08/20 07:46:28;;;;;;;;;;;;;;;;;;5054634;28;19925;-63
2022/08/20 07:48:54;;;;;;;;;;;;;;;;;;5054512;28;19925;-62
2022/08/20 07:51:21;;;;;;;;;;;;;;;;;;5054166;28;20015;-64
2022/08/20 07:53:48;;;;;;;;;;;;;;;;;;5054173;28;19979;-62
2022/08/20 07:56:16;;;;;;;;;;;;;;;;;;5054330;28;20328;-62
2022/08/20 07:58:46;;;;;;;;;;;;;;;;;;5054181;28;20386;-63
2022/08/20 08:01:12;;;;;;;;;;;;;;;;;;5054778;28;20003;-63
2022/08/20 08:03:41;;;;;;;;;;;;;;;;;;5054337;28;19928;-64
2022/08/20 08:06:08;;;;;;;;;;;;;;;;;;5054632;28;20015;-62
2022/08/20 08:08:35;;;;;;;;;;;;;;;;;;5054145;28;19925;-62
2022/08/20 08:11:03;;;;;;;;;;;;;;;;;;5053853;28;19925;-64
2022/08/20 08:13:34;;;;;;;;;;;;;;;;;;5053641;28;19971;-63
2022/08/20 08:16:02;;;;;;;;;;;;;;;;;;5053793;28;19925;-65
2022/08/20 08:18:31;;;;;;;;;;;;;;;;;;5054083;28;19925;-62
2022/08/20 08:20:59;;;;;;;;;;;;;;;;;;5053331;28;19924;-62
2022/08/20 08:23:26;;;;;;;;;;;;;;;;;;5053544;28;19925;-62
2022/08/20 08:25:53;;;;;;;;;;;;;;;;;;5053878;28;20120;-62
2022/08/20 08:28:20;;;;;;;;;;;;;;;;;;5053447;28;19924;-62
2022/08/20 08:30:47;;;;;;;;;;;;;;;;;;5053424;28;19932;-62
2022/08/20 08:33:27;;;;;;;;;;;;;;;;;;5053444;28;19928;-62
2022/08/20 08:35:54;;;;;;;;;;;;;;;;;;5053531;28;19929;-63
2022/08/20 08:38:22;;;;;;;;;;;;;;;;;;5054011;28;19932;-62
2022/08/20 08:40:51;;;;;;;;;;;;;;;;;;5053283;28;19925;-61
2022/08/20 08:43:19;;;;;;;;;;;;;;;;;;5053084;28;19937;-63
2022/08/20 08:45:47;;;;;;;;;;;;;;;;;;5052740;28;19925;-63
2022/08/20 08:48:17;;;;;;;;;;;;;;;;;;5053468;28;20312;-62
2022/08/20 08:50:46;;;;;;;;;;;;;;;;;;5053112;28;19986;-62
2022/08/20 08:53:18;;;;;;;;;;;;;;;;;;5052823;28;20403;-63
2022/08/20 08:55:46;;;;;;;;;;;;;;;;;;5053360;28;19990;-64
2022/08/20 08:58:13;;;;;;;;;;;;;;;;;;5053114;28;19925;-63
2022/08/20 09:00:40;;;;;;;;;;;;;;;;;;5056727;28;19932;-63
2022/08/20 09:03:08;;;;;;;;;;;;;;;;;;5073149;28;19970;-62
2022/08/20 09:05:37;;;;;;;;;;;;;;;;;;5072604;28;19954;-63
2022/08/20 09:08:05;;;;;;;;;;;;;;;;;;5072799;28;19931;-63
2022/08/20 09:10:32;;;;;;;;;;;;;;;;;;5072786;28;20319;-62
2022/08/20 09:13:02;;;;;;;;;;;;;;;;;;5072666;28;20405;-63
2022/08/20 09:15:29;;;;;;;;;;;;;;;;;;5072980;28;19931;-63
2022/08/20 09:17:55;;;;;;;;;;;;;;;;;;5072590;28;20388;-62
2022/08/20 09:20:22;;;;;;;;;;;;;;;;;;5072304;28;19930;-64
2022/08/20 09:22:49;;;;;;;;;;;;;;;;;;5072556;28;19925;-63
2022/08/20 09:25:15;;;;;;;;;;;;;;;;;;5072435;28;20343;-62
2022/08/20 09:27:42;;;;;;;;;;;;;;;;;;5072746;28;19970;-62
2022/08/20 09:30:11;;;;;;;;;;;;;;;;;;5072304;28;19970;-62
2022/08/20 09:32:38;;;;;;;;;;;;;;;;;;5072502;28;19932;-60
2022/08/20 09:35:05;;;;;;;;;;;;;;;;;;5072325;28;20002;-61
2022/08/20 09:37:32;;;;;;;;;;;;;;;;;;5072628;28;19924;-62
2022/08/20 09:40:00;;;;;;;;;;;;;;;;;;5072656;28;19931;-63
2022/08/20 09:42:28;;;;;;;;;;;;;;;;;;5072453;28;19925;-62
2022/08/20 09:44:55;;;;;;;;;;;;;;;;;;5072502;28;20021;-62
2022/08/20 09:47:23;;;;;;;;;;;;;;;;;;5072740;28;19924;-63
2022/08/20 09:49:49;;;;;;;;;;;;;;;;;;5072143;28;19929;-64
2022/08/20 09:52:18;;;;;;;;;;;;;;;;;;5072300;28;19924;-64
2022/08/20 09:54:45;;;;;;;;;;;;;;;;;;5072151;28;19928;-62
2022/08/20 09:57:12;;;;;;;;;;;;;;;;;;5076459;28;19932;-64
2022/08/20 09:59:39;;;;;;;;;;;;;;;;;;5075974;28;19924;-65
2022/08/20 10:02:05;;;;;;;;;;;;;;;;;;5076072;28;19924;-64
2022/08/20 10:04:33;;;;;;;;;;;;;;;;;;5076253;28;19929;-64
2022/08/20 10:07:00;;;;;;;;;;;;;;;;;;5076249;28;19925;-62
2022/08/20 10:09:26;;;;;;;;;;;;;;;;;;5075900;28;19924;-62
2022/08/20 10:11:53;;;;;;;;;;;;;;;;;;5076605;28;19931;-63
2022/08/20 10:14:22;;;;;;;;;;;;;;;;;;5075815;28;19925;-63
2022/08/20 10:16:54;;;;;;;;;;;;;;;;;;5076169;28;20374;-63
2022/08/20 10:19:21;;;;;;;;;;;;;;;;;;5075718;28;19931;-63
2022/08/20 10:21:49;;;;;;;;;;;;;;;;;;5076071;28;19928;-63
2022/08/20 10:24:16;;;;;;;;;;;;;;;;;;5075647;28;19931;-62
2022/08/20 10:26:43;;;;;;;;;;;;;;;;;;5075973;28;20010;-63
2022/08/20 10:29:09;;;;;;;;;;;;;;;;;;5075271;28;20350;-62
2022/08/20 10:31:36;;;;;;;;;;;;;;;;;;5075772;28;20384;-62
2022/08/20 10:34:03;;;;;;;;;;;;;;;;;;5075638;28;20367;-64
2022/08/20 10:36:29;;;;;;;;;;;;;;;;;;5075868;28;19928;-61
2022/08/20 10:38:58;;;;;;;;;;;;;;;;;;5075914;28;19977;-60
2022/08/20 10:41:24;;;;;;;;;;;;;;;;;;5075861;28;19924;-63
2022/08/20 10:43:51;;;;;;;;;;;;;;;;;;5075304;28;19928;-63
2022/08/20 10:46:17;;;;;;;;;;;;;;;;;;5075395;28;19977;-62
2022/08/20 10:48:44;;;;;;;;;;;;;;;;;;5075341;28;19924;-63
2022/08/20 10:51:10;;;;;;;;;;;;;;;;;;5075113;28;19986;-63
2022/08/20 10:53:40;;;;;;;;;;;;;;;;;;5096553;22;19986;-81
2022/08/20 10:56:07;;;;;;;;;;;;;;;;;;5035298;28;20023;-81
2022/08/20 10:58:34;;;;;;;;;;;;;;;;;;5036728;28;19979;-81
2022/08/20 11:01:01;;;;;;;;;;;;;;;;;;5037063;28;20020;-82
2022/08/20 11:03:27;;;;;;;;;;;;;;;;;;5037010;28;19969;-82
2022/08/20 11:05:54;;;;;;;;;;;;;;;;;;5036808;28;20121;-81
2022/08/20 11:08:20;;;;;;;;;;;;;;;;;;5036816;28;19925;-82
2022/08/20 11:10:46;;;;;;;;;;;;;;;;;;5037059;28;20023;-81
2022/08/20 11:13:14;;;;;;;;;;;;;;;;;;5037257;28;19925;-82
2022/08/20 11:15:44;;;;;;;;;;;;;;;;;;5036723;28;19965;-80
2022/08/20 11:18:11;;;;;;;;;;;;;;;;;;5037372;28;19932;-80
2022/08/20 11:20:38;;;;;;;;;;;;;;;;;;5037259;28;19925;-82
2022/08/20 11:23:05;;;;;;;;;;;;;;;;;;5042804;28;20422;-81
2022/08/20 11:25:32;;;;;;;;;;;;;;;;;;5042737;28;19925;-81
2022/08/20 11:27:58;;;;;;;;;;;;;;;;;;5043262;28;19968;-83
2022/08/20 11:30:33;;;;;;;;;;;;;;;;;;5042746;28;19975;-81
2022/08/20 11:33:00;;;;;;;;;;;;;;;;;;5044086;28;19953;-82
2022/08/20 11:35:27;;;;;;;;;;;;;;;;;;5041202;28;19965;-81
2022/08/20 11:37:55;;;;;;;;;;;;;;;;;;5037434;28;19972;-81
2022/08/20 11:40:22;;;;;;;;;;;;;;;;;;5036750;28;19925;-81
2022/08/20 11:42:48;;;;;;;;;;;;;;;;;;5037034;28;19984;-81
2022/08/20 11:45:15;;;;;;;;;;;;;;;;;;5036789;28;19964;-80
2022/08/20 11:47:43;;;;;;;;;;;;;;;;;;5036803;28;19941;-81
2022/08/20 11:50:10;;;;;;;;;;;;;;;;;;5036584;28;20008;-80
2022/08/20 11:52:37;;;;;;;;;;;;;;;;;;5036842;28;20414;-80
2022/08/20 11:55:03;;;;;;;;;;;;;;;;;;5036561;28;19925;-81
2022/08/20 11:57:32;;;;;;;;;;;;;;;;;;5036891;28;19929;-82
2022/08/20 11:59:59;;;;;;;;;;;;;;;;;;5036303;28;20020;-81
2022/08/20 12:02:26;;;;;;;;;;;;;;;;;;5018741;28;19968;-82
2022/08/20 12:04:54;;;;;;;;;;;;;;;;;;5021275;28;19932;-82
2022/08/20 12:07:22;;;;;;;;;;;;;;;;;;5022626;28;19971;-82
2022/08/20 12:09:49;;;;;;;;;;;;;;;;;;5022429;28;20096;-83
2022/08/20 12:12:19;;;;;;;;;;;;;;;;;;5023006;28;19953;-82
2022/08/20 12:14:49;;;;;;;;;;;;;;;;;;5017693;28;20015;-81
2022/08/20 12:17:18;;;;;;;;;;;;;;;;;;5017150;28;20335;-81
2022/08/20 12:19:45;;;;;;;;;;;;;;;;;;5015681;28;19980;-81
2022/08/20 12:22:13;;;;;;;;;;;;;;;;;;5016964;28;19976;-82
2022/08/20 12:24:40;;;;;;;;;;;;;;;;;;5016799;28;20032;-81
2022/08/20 12:27:11;;;;;;;;;;;;;;;;;;5016573;28;19926;-81
2022/08/20 12:29:38;;;;;;;;;;;;;;;;;;5016941;28;20359;-81
2022/08/20 12:32:05;;;;;;;;;;;;;;;;;;5016585;28;19929;-81
2022/08/20 12:34:32;;;;;;;;;;;;;;;;;;5016241;28;19929;-81
2022/08/20 12:37:00;;;;;;;;;;;;;;;;;;5016619;28;19925;-80
2022/08/20 12:39:30;;;;;;;;;;;;;;;;;;5023352;28;19933;-80
2022/08/20 12:41:57;;;;;;;;;;;;;;;;;;5030954;28;19948;-80
2022/08/20 12:44:23;;;;;;;;;;;;;;;;;;5027455;28;19925;-83
2022/08/20 12:46:50;;;;;;;;;;;;;;;;;;5024557;28;19952;-82
2022/08/20 12:49:16;;;;;;;;;;;;;;;;;;5023556;28;19925;-82
2022/08/20 12:51:43;;;;;;;;;;;;;;;;;;5024024;28;19964;-83
2022/08/20 12:54:09;;;;;;;;;;;;;;;;;;5022179;28;19948;-82
2022/08/20 12:56:37;;;;;;;;;;;;;;;;;;5017883;28;20394;-81
2022/08/20 12:59:03;;;;;;;;;;;;;;;;;;5017162;28;19961;-82
2022/08/20 13:01:30;;;;;;;;;;;;;;;;;;5016563;28;19984;-82
2022/08/20 13:03:56;;;;;;;;;;;;;;;;;;5016492;28;19931;-82
2022/08/20 13:06:23;;;;;;;;;;;;;;;;;;5015751;28;19948;-79
2022/08/20 13:08:49;;;;;;;;;;;;;;;;;;5016220;28;20300;-81
2022/08/20 13:11:16;;;;;;;;;;;;;;;;;;5015625;28;20320;-82
2022/08/20 13:13:46;;;;;;;;;;;;;;;;;;5016008;28;19975;-82
2022/08/20 13:16:13;;;;;;;;;;;;;;;;;;5016650;28;19925;-82
2022/08/20 13:18:39;;;;;;;;;;;;;;;;;;5015732;28;20311;-81
2022/08/20 13:21:06;;;;;;;;;;;;;;;;;;5015750;28;19938;-81
2022/08/20 13:23:32;;;;;;;;;;;;;;;;;;5015707;28;19989;-82
2022/08/20 13:25:59;;;;;;;;;;;;;;;;;;5016174;28;19944;-81
2022/08/20 13:28:25;;;;;;;;;;;;;;;;;;5015592;28;20019;-81
2022/08/20 13:30:53;;;;;;;;;;;;;;;;;;5015203;28;20020;-81
2022/08/20 13:33:20;;;;;;;;;;;;;;;;;;5015400;28;19925;-82
2022/08/20 13:35:46;;;;;;;;;;;;;;;;;;5015677;28;19968;-81
2022/08/20 13:38:13;;;;;;;;;;;;;;;;;;5015024;28;19960;-81
2022/08/20 13:40:41;;;;;;;;;;;;;;;;;;5015362;28;20302;-81
2022/08/20 13:43:07;;;;;;;;;;;;;;;;;;5016106;28;20549;-81
2022/08/20 13:45:34;;;;;;;;;;;;;;;;;;5016322;28;20415;-81
2022/08/20 13:48:02;;;;;;;;;;;;;;;;;;5015696;28;19972;-81
2022/08/20 13:50:29;;;;;;;;;;;;;;;;;;5015619;28;19961;-81
2022/08/20 13:52:55;;;;;;;;;;;;;;;;;;5016092;28;20340;-81
2022/08/20 13:55:23;;;;;;;;;;;;;;;;;;5016401;28;19957;-81
2022/08/20 13:57:50;;;;;;;;;;;;;;;;;;5015915;28;19972;-81
2022/08/20 14:00:19;;;;;;;;;;;;;;;;;;5015540;28;19925;-81
2022/08/20 14:02:45;;;;;;;;;;;;;;;;;;5014684;28;20336;-81
2022/08/20 14:05:14;;;;;;;;;;;;;;;;;;5015634;28;20044;-81
2022/08/20 14:07:42;;;;;;;;;;;;;;;;;;5016093;28;19929;-81
2022/08/20 14:10:10;;;;;;;;;;;;;;;;;;5014683;28;19925;-81
2022/08/20 14:12:38;;;;;;;;;;;;;;;;;;5015898;28;20016;-82
2022/08/20 14:15:05;;;;;;;;;;;;;;;;;;5015638;28;20036;-81
2022/08/20 14:17:33;;;;;;;;;;;;;;;;;;5015254;28;20016;-81
2022/08/20 14:20:00;;;;;;;;;;;;;;;;;;5014969;28;19925;-81
2022/08/20 14:22:28;;;;;;;;;;;;;;;;;;5017588;28;19972;-82
2022/08/20 14:24:55;;;;;;;;;;;;;;;;;;5015945;28;20293;-82
2022/08/20 14:27:24;;;;;;;;;;;;;;;;;;5017762;28;19932;-82
2022/08/20 14:29:51;;;;;;;;;;;;;;;;;;5027026;28;20382;-80
2022/08/20 14:32:17;;;;;;;;;;;;;;;;;;5027944;28;19925;-80
2022/08/20 14:34:44;;;;;;;;;;;;;;;;;;5022075;28;19988;-82
2022/08/20 14:37:12;;;;;;;;;;;;;;;;;;5015131;28;20441;-82
2022/08/20 14:39:40;;;;;;;;;;;;;;;;;;5015542;28;19968;-82
2022/08/20 14:42:09;;;;;;;;;;;;;;;;;;5017225;28;19929;-82
2022/08/20 14:44:39;;;;;;;;;;;;;;;;;;5019403;28;20346;-82
2022/08/20 14:47:18;;;;;;;;;;;;;;;;;;5018507;28;19992;-82
2022/08/20 14:49:45;;;;;;;;;;;;;;;;;;5018609;28;19926;-82
2022/08/20 14:52:12;;;;;;;;;;;;;;;;;;5018243;28;19984;-82
2022/08/20 14:54:40;;;;;;;;;;;;;;;;;;5018872;28;19929;-82
2022/08/20 14:57:07;;;;;;;;;;;;;;;;;;5018736;28;19925;-82
2022/08/20 14:59:36;;;;;;;;;;;;;;;;;;5018348;28;19925;-82
2022/08/20 15:02:02;;;;;;;;;;;;;;;;;;5018632;28;19926;-82
2022/08/20 15:04:29;;;;;;;;;;;;;;;;;;5018710;28;19976;-81
2022/08/20 15:06:56;;;;;;;;;;;;;;;;;;5018126;28;19929;-82
2022/08/20 15:09:22;;;;;;;;;;;;;;;;;;5018688;28;19988;-82
2022/08/20 15:11:50;;;;;;;;;;;;;;;;;;5018336;28;19961;-81
2022/08/20 15:14:17;;;;;;;;;;;;;;;;;;5018322;28;19965;-81
2022/08/20 15:16:43;;;;;;;;;;;;;;;;;;5019189;28;19930;-81
2022/08/20 15:19:10;;;;;;;;;;;;;;;;;;5024796;28;19979;-82
2022/08/20 15:21:36;;;;;;;;;;;;;;;;;;5043587;28;19929;-83
2022/08/20 15:24:10;;;;;;;;;;;;;;;;;;5044885;28;19925;-82
2022/08/20 15:26:40;;;;;;;;;;;;;;;;;;5038215;28;20272;-82
2022/08/20 15:29:07;;;;;;;;;;;;;;;;;;5037098;28;19991;-81
2022/08/20 15:31:34;;;;;;;;;;;;;;;;;;5038274;28;19932;-79
2022/08/20 15:34:01;;;;;;;;;;;;;;;;;;5038086;28;20358;-81
2022/08/20 15:36:27;;;;;;;;;;;;;;;;;;5037670;28;20471;-80
2022/08/20 15:38:54;;;;;;;;;;;;;;;;;;5038076;28;20456;-79
2022/08/20 15:41:20;;;;;;;;;;;;;;;;;;5037929;28;19960;-80
2022/08/20 15:43:47;;;;;;;;;;;;;;;;;;5037707;28;19976;-79
2022/08/20 15:46:15;;;;;;;;;;;;;;;;;;5049272;28;19926;-79
2022/08/20 15:48:44;;;;;;;;;;;;;;;;;;5045207;28;19926;-79
2022/08/20 15:51:19;;;;;;;;;;;;;;;;;;5044975;28;19948;-82
2022/08/20 15:53:50;;;;;;;;;;;;;;;;;;5039539;28;20300;-80
2022/08/20 15:56:25;;;;;;;;;;;;;;;;;;5037195;28;19976;-81
2022/08/20 15:58:57;;;;;;;;;;;;;;;;;;5037163;28;19925;-80
2022/08/20 16:01:28;;;;;;;;;;;;;;;;;;5038098;28;19925;-80
2022/08/20 16:04:07;;;;;;;;;;;;;;;;;;5037364;28;20305;-80
2022/08/20 16:06:33;;;;;;;;;;;;;;;;;;5037912;28;19960;-81
2022/08/20 16:09:11;;;;;;;;;;;;;;;;;;5037969;28;19983;-79
2022/08/20 16:11:42;;;;;;;;;;;;;;;;;;5037973;28;19929;-80
2022/08/20 16:14:14;;;;;;;;;;;;;;;;;;5037712;28;20016;-79
2022/08/20 16:16:43;;;;;;;;;;;;;;;;;;5037890;28;19971;-80
2022/08/20 16:19:11;;;;;;;;;;;;;;;;;;5037380;28;19983;-80
2022/08/20 16:21:41;;;;;;;;;;;;;;;;;;5037587;28;20012;-80
2022/08/20 16:24:08;;;;;;;;;;;;;;;;;;5037466;28;19972;-79
2022/08/20 16:26:43;;;;;;;;;;;;;;;;;;5038012;28;19976;-80
2022/08/20 16:29:12;;;;;;;;;;;;;;;;;;5038049;28;19932;-81
2022/08/20 16:31:42;;;;;;;;;;;;;;;;;;5039105;28;19925;-80
2022/08/20 16:34:16;;;;;;;;;;;;;;;;;;5042175;28;19970;-80
2022/08/20 16:36:47;;;;;;;;;;;;;;;;;;5037311;28;19979;-80
2022/08/20 16:39:19;;;;;;;;;;;;;;;;;;5036178;28;19925;-81
2022/08/20 16:41:47;;;;;;;;;;;;;;;;;;5036492;28;20012;-80
2022/08/20 16:44:17;;;;;;;;;;;;;;;;;;5036484;28;19956;-82
2022/08/20 16:46:47;;;;;;;;;;;;;;;;;;5036940;28;20004;-80
2022/08/20 16:49:15;;;;;;;;;;;;;;;;;;5038344;28;20008;-80
2022/08/20 16:51:44;;;;;;;;;;;;;;;;;;5039237;28;19961;-80
2022/08/20 16:54:11;;;;;;;;;;;;;;;;;;5051296;22;19945;-76